sensor_id;sensor_type;location;lat;lon;timestamp;P1;durP1;ratioP1;P2;durP2;ratioP2
56567;SDS011;42456;49.956;20.004;2022-07-04T00:00:28;6.37;;;4.05;;
56567;SDS011;42456;49.956;20.004;2022-07-04T00:02:54;8.75;;;4.15;;
56567;SDS011;42456;49.956;20.004;2022-07-04T00:05:21;5.35;;;3.98;;
56567;SDS011;42456;49.956;20.004;2022-07-04T00:07:48;6.47;;;3.87;;
56567;SDS011;42456;49.956;20.004;2022-07-04T00:10:16;5.75;;;3.80;;
56567;SDS011;42456;49.956;20.004;2022-07-04T00:12:45;6.58;;;4.00;;
56567;SDS011;42456;49.956;20.004;2022-07-04T00:15:12;6.75;;;4.20;;
56567;SDS011;42456;49.956;20.004;2022-07-04T00:17:40;5.30;;;3.95;;
56567;SDS011;42456;49.956;20.004;2022-07-04T00:20:08;7.12;;;4.15;;
56567;SDS011;42456;49.956;20.004;2022-07-04T00:22:35;6.92;;;4.30;;
56567;SDS011;42456;49.956;20.004;2022-07-04T00:25:02;6.78;;;4.33;;
56567;SDS011;42456;49.956;20.004;2022-07-04T00:27:30;4.65;;;3.95;;
56567;SDS011;42456;49.956;20.004;2022-07-04T00:29:56;6.03;;;4.35;;
56567;SDS011;42456;49.956;20.004;2022-07-04T00:32:23;8.93;;;4.22;;
56567;SDS011;42456;49.956;20.004;2022-07-04T00:34:49;7.45;;;4.17;;
56567;SDS011;42456;49.956;20.004;2022-07-04T00:37:15;7.22;;;3.95;;
56567;SDS011;42456;49.956;20.004;2022-07-04T00:39:41;6.08;;;4.35;;
56567;SDS011;42456;49.956;20.004;2022-07-04T00:42:08;8.28;;;4.30;;
56567;SDS011;42456;49.956;20.004;2022-07-04T00:44:35;8.68;;;4.47;;
56567;SDS011;42456;49.956;20.004;2022-07-04T00:47:02;6.80;;;4.65;;
56567;SDS011;42456;49.956;20.004;2022-07-04T00:49:30;6.60;;;4.47;;
56567;SDS011;42456;49.956;20.004;2022-07-04T00:51:56;8.10;;;4.70;;
56567;SDS011;42456;49.956;20.004;2022-07-04T00:54:25;5.12;;;3.87;;
56567;SDS011;42456;49.956;20.004;2022-07-04T00:56:54;9.63;;;4.70;;
56567;SDS011;42456;49.956;20.004;2022-07-04T00:59:21;6.60;;;4.87;;
56567;SDS011;42456;49.956;20.004;2022-07-04T01:01:48;7.72;;;4.40;;
56567;SDS011;42456;49.956;20.004;2022-07-04T01:04:15;6.20;;;4.58;;
56567;SDS011;42456;49.956;20.004;2022-07-04T01:06:42;6.78;;;4.53;;
56567;SDS011;42456;49.956;20.004;2022-07-04T01:09:10;7.90;;;4.92;;
56567;SDS011;42456;49.956;20.004;2022-07-04T01:11:37;6.58;;;4.53;;
56567;SDS011;42456;49.956;20.004;2022-07-04T01:14:04;7.92;;;4.62;;
56567;SDS011;42456;49.956;20.004;2022-07-04T01:16:33;7.25;;;4.35;;
56567;SDS011;42456;49.956;20.004;2022-07-04T01:19:00;6.22;;;4.33;;
56567;SDS011;42456;49.956;20.004;2022-07-04T01:21:27;9.68;;;4.72;;
56567;SDS011;42456;49.956;20.004;2022-07-04T01:23:53;7.20;;;4.70;;
56567;SDS011;42456;49.956;20.004;2022-07-04T01:26:19;7.22;;;4.67;;
56567;SDS011;42456;49.956;20.004;2022-07-04T01:28:46;7.33;;;4.72;;
56567;SDS011;42456;49.956;20.004;2022-07-04T01:31:12;8.00;;;4.80;;
56567;SDS011;42456;49.956;20.004;2022-07-04T01:33:39;7.90;;;4.70;;
56567;SDS011;42456;49.956;20.004;2022-07-04T01:36:05;7.35;;;4.53;;
56567;SDS011;42456;49.956;20.004;2022-07-04T01:38:32;7.03;;;4.50;;
56567;SDS011;42456;49.956;20.004;2022-07-04T01:40:58;9.15;;;4.50;;
56567;SDS011;42456;49.956;20.004;2022-07-04T01:43:25;9.10;;;4.97;;
56567;SDS011;42456;49.956;20.004;2022-07-04T01:45:51;8.45;;;4.58;;
56567;SDS011;42456;49.956;20.004;2022-07-04T01:48:17;7.15;;;4.72;;
56567;SDS011;42456;49.956;20.004;2022-07-04T01:50:44;9.10;;;5.10;;
56567;SDS011;42456;49.956;20.004;2022-07-04T01:53:10;8.90;;;4.62;;
56567;SDS011;42456;49.956;20.004;2022-07-04T01:55:36;9.80;;;5.12;;
56567;SDS011;42456;49.956;20.004;2022-07-04T01:58:03;9.70;;;5.75;;
56567;SDS011;42456;49.956;20.004;2022-07-04T02:00:29;7.92;;;4.92;;
56567;SDS011;42456;49.956;20.004;2022-07-04T02:03:09;6.33;;;4.83;;
56567;SDS011;42456;49.956;20.004;2022-07-04T02:05:35;9.95;;;5.28;;
56567;SDS011;42456;49.956;20.004;2022-07-04T02:10:32;9.28;;;4.72;;
56567;SDS011;42456;49.956;20.004;2022-07-04T02:12:59;6.47;;;4.65;;
56567;SDS011;42456;49.956;20.004;2022-07-04T02:15:27;6.80;;;4.75;;
56567;SDS011;42456;49.956;20.004;2022-07-04T02:17:56;9.93;;;4.85;;
56567;SDS011;42456;49.956;20.004;2022-07-04T02:20:23;8.95;;;4.92;;
56567;SDS011;42456;49.956;20.004;2022-07-04T02:22:49;7.15;;;4.90;;
56567;SDS011;42456;49.956;20.004;2022-07-04T02:25:16;7.33;;;4.72;;
56567;SDS011;42456;49.956;20.004;2022-07-04T02:27:43;7.12;;;4.70;;
56567;SDS011;42456;49.956;20.004;2022-07-04T02:30:10;7.12;;;4.80;;
56567;SDS011;42456;49.956;20.004;2022-07-04T02:32:38;9.23;;;4.80;;
56567;SDS011;42456;49.956;20.004;2022-07-04T02:35:04;8.58;;;5.10;;
56567;SDS011;42456;49.956;20.004;2022-07-04T02:37:32;7.70;;;4.60;;
56567;SDS011;42456;49.956;20.004;2022-07-04T02:39:58;8.63;;;5.20;;
56567;SDS011;42456;49.956;20.004;2022-07-04T02:42:28;8.58;;;5.35;;
56567;SDS011;42456;49.956;20.004;2022-07-04T02:44:55;8.88;;;4.97;;
56567;SDS011;42456;49.956;20.004;2022-07-04T02:47:22;9.18;;;4.78;;
56567;SDS011;42456;49.956;20.004;2022-07-04T02:49:48;10.10;;;5.15;;
56567;SDS011;42456;49.956;20.004;2022-07-04T02:52:14;9.00;;;4.65;;
56567;SDS011;42456;49.956;20.004;2022-07-04T02:54:40;9.20;;;4.58;;
56567;SDS011;42456;49.956;20.004;2022-07-04T02:57:07;8.98;;;4.45;;
56567;SDS011;42456;49.956;20.004;2022-07-04T02:59:34;6.65;;;4.72;;
56567;SDS011;42456;49.956;20.004;2022-07-04T03:02:00;6.37;;;4.58;;
56567;SDS011;42456;49.956;20.004;2022-07-04T03:04:26;8.43;;;4.90;;
56567;SDS011;42456;49.956;20.004;2022-07-04T03:06:52;9.15;;;5.30;;
56567;SDS011;42456;49.956;20.004;2022-07-04T03:09:19;7.87;;;4.75;;
56567;SDS011;42456;49.956;20.004;2022-07-04T03:11:45;6.62;;;4.25;;
56567;SDS011;42456;49.956;20.004;2022-07-04T03:14:11;6.72;;;4.78;;
56567;SDS011;42456;49.956;20.004;2022-07-04T03:16:37;5.83;;;4.50;;
56567;SDS011;42456;49.956;20.004;2022-07-04T03:19:04;9.55;;;4.78;;
56567;SDS011;42456;49.956;20.004;2022-07-04T03:21:30;7.75;;;4.37;;
56567;SDS011;42456;49.956;20.004;2022-07-04T03:23:56;9.03;;;4.72;;
56567;SDS011;42456;49.956;20.004;2022-07-04T03:26:27;9.08;;;4.80;;
56567;SDS011;42456;49.956;20.004;2022-07-04T03:28:57;6.90;;;4.17;;
56567;SDS011;42456;49.956;20.004;2022-07-04T03:31:24;6.65;;;4.28;;
56567;SDS011;42456;49.956;20.004;2022-07-04T03:33:53;5.72;;;4.05;;
56567;SDS011;42456;49.956;20.004;2022-07-04T03:36:20;6.60;;;4.08;;
56567;SDS011;42456;49.956;20.004;2022-07-04T03:38:46;8.10;;;4.58;;
56567;SDS011;42456;49.956;20.004;2022-07-04T03:41:13;8.58;;;4.40;;
56567;SDS011;42456;49.956;20.004;2022-07-04T03:43:40;7.05;;;4.42;;
56567;SDS011;42456;49.956;20.004;2022-07-04T03:46:07;6.55;;;4.67;;
56567;SDS011;42456;49.956;20.004;2022-07-04T03:48:33;6.80;;;4.28;;
56567;SDS011;42456;49.956;20.004;2022-07-04T03:50:59;6.70;;;4.55;;
56567;SDS011;42456;49.956;20.004;2022-07-04T03:53:25;6.87;;;4.47;;
56567;SDS011;42456;49.956;20.004;2022-07-04T03:55:52;5.60;;;4.58;;
56567;SDS011;42456;49.956;20.004;2022-07-04T03:58:18;5.45;;;4.42;;
56567;SDS011;42456;49.956;20.004;2022-07-04T04:00:44;7.05;;;4.90;;
56567;SDS011;42456;49.956;20.004;2022-07-04T04:03:10;7.83;;;4.55;;
56567;SDS011;42456;49.956;20.004;2022-07-04T04:05:49;6.80;;;4.72;;
56567;SDS011;42456;49.956;20.004;2022-07-04T04:08:16;6.58;;;4.70;;
56567;SDS011;42456;49.956;20.004;2022-07-04T04:10:42;7.95;;;5.08;;
56567;SDS011;42456;49.956;20.004;2022-07-04T04:13:08;8.75;;;5.12;;
56567;SDS011;42456;49.956;20.004;2022-07-04T04:15:34;8.28;;;4.92;;
56567;SDS011;42456;49.956;20.004;2022-07-04T04:18:01;7.85;;;4.87;;
56567;SDS011;42456;49.956;20.004;2022-07-04T04:20:27;8.58;;;5.42;;
56567;SDS011;42456;49.956;20.004;2022-07-04T04:22:53;8.65;;;4.83;;
56567;SDS011;42456;49.956;20.004;2022-07-04T04:25:19;6.72;;;4.92;;
56567;SDS011;42456;49.956;20.004;2022-07-04T04:27:46;9.58;;;4.90;;
56567;SDS011;42456;49.956;20.004;2022-07-04T04:30:12;8.08;;;5.00;;
56567;SDS011;42456;49.956;20.004;2022-07-04T04:32:38;8.23;;;5.28;;
56567;SDS011;42456;49.956;20.004;2022-07-04T04:35:05;7.22;;;5.42;;
56567;SDS011;42456;49.956;20.004;2022-07-04T04:37:31;6.30;;;4.95;;
56567;SDS011;42456;49.956;20.004;2022-07-04T04:39:58;9.38;;;5.40;;
56567;SDS011;42456;49.956;20.004;2022-07-04T04:42:24;9.38;;;5.50;;
56567;SDS011;42456;49.956;20.004;2022-07-04T04:44:50;8.50;;;5.80;;
56567;SDS011;42456;49.956;20.004;2022-07-04T04:47:17;8.23;;;5.50;;
56567;SDS011;42456;49.956;20.004;2022-07-04T04:49:43;7.62;;;5.30;;
56567;SDS011;42456;49.956;20.004;2022-07-04T04:52:10;9.53;;;5.58;;
56567;SDS011;42456;49.956;20.004;2022-07-04T04:54:36;14.40;;;6.35;;
56567;SDS011;42456;49.956;20.004;2022-07-04T04:57:03;11.00;;;5.72;;
56567;SDS011;42456;49.956;20.004;2022-07-04T04:59:30;9.68;;;5.97;;
56567;SDS011;42456;49.956;20.004;2022-07-04T05:01:57;8.05;;;5.75;;
56567;SDS011;42456;49.956;20.004;2022-07-04T05:04:24;9.58;;;5.87;;
56567;SDS011;42456;49.956;20.004;2022-07-04T05:06:50;9.08;;;5.58;;
56567;SDS011;42456;49.956;20.004;2022-07-04T05:09:17;10.18;;;5.70;;
56567;SDS011;42456;49.956;20.004;2022-07-04T05:11:44;10.40;;;6.40;;
56567;SDS011;42456;49.956;20.004;2022-07-04T05:14:11;9.88;;;6.17;;
56567;SDS011;42456;49.956;20.004;2022-07-04T05:16:38;9.78;;;5.92;;
56567;SDS011;42456;49.956;20.004;2022-07-04T05:19:04;9.58;;;6.15;;
56567;SDS011;42456;49.956;20.004;2022-07-04T05:21:30;10.32;;;6.10;;
56567;SDS011;42456;49.956;20.004;2022-07-04T05:23:57;9.03;;;5.65;;
56567;SDS011;42456;49.956;20.004;2022-07-04T05:26:23;8.75;;;6.03;;
56567;SDS011;42456;49.956;20.004;2022-07-04T05:28:50;9.20;;;5.87;;
56567;SDS011;42456;49.956;20.004;2022-07-04T05:31:17;9.83;;;6.22;;
56567;SDS011;42456;49.956;20.004;2022-07-04T05:33:43;7.83;;;5.58;;
56567;SDS011;42456;49.956;20.004;2022-07-04T05:36:09;7.12;;;5.30;;
56567;SDS011;42456;49.956;20.004;2022-07-04T05:38:36;8.13;;;5.50;;
56567;SDS011;42456;49.956;20.004;2022-07-04T05:41:02;8.95;;;6.25;;
56567;SDS011;42456;49.956;20.004;2022-07-04T05:43:28;10.55;;;6.35;;
56567;SDS011;42456;49.956;20.004;2022-07-04T05:45:54;11.48;;;7.08;;
56567;SDS011;42456;49.956;20.004;2022-07-04T05:48:21;8.73;;;6.30;;
56567;SDS011;42456;49.956;20.004;2022-07-04T05:50:47;9.48;;;6.53;;
56567;SDS011;42456;49.956;20.004;2022-07-04T05:53:13;9.30;;;6.53;;
56567;SDS011;42456;49.956;20.004;2022-07-04T05:55:40;8.18;;;6.40;;
56567;SDS011;42456;49.956;20.004;2022-07-04T05:58:06;8.70;;;6.70;;
56567;SDS011;42456;49.956;20.004;2022-07-04T06:00:32;10.25;;;6.90;;
56567;SDS011;42456;49.956;20.004;2022-07-04T06:02:59;8.83;;;6.60;;
56567;SDS011;42456;49.956;20.004;2022-07-04T06:05:25;7.05;;;6.35;;
56567;SDS011;42456;49.956;20.004;2022-07-04T06:07:52;7.78;;;6.10;;
56567;SDS011;42456;49.956;20.004;2022-07-04T06:10:18;9.85;;;6.17;;
56567;SDS011;42456;49.956;20.004;2022-07-04T06:12:44;9.73;;;5.95;;
56567;SDS011;42456;49.956;20.004;2022-07-04T06:15:11;8.83;;;6.03;;
56567;SDS011;42456;49.956;20.004;2022-07-04T06:17:37;6.92;;;5.65;;
56567;SDS011;42456;49.956;20.004;2022-07-04T06:20:04;6.87;;;5.53;;
56567;SDS011;42456;49.956;20.004;2022-07-04T06:25:17;10.70;;;5.50;;
56567;SDS011;42456;49.956;20.004;2022-07-04T06:27:46;7.00;;;5.50;;
56567;SDS011;42456;49.956;20.004;2022-07-04T06:30:14;6.15;;;5.55;;
56567;SDS011;42456;49.956;20.004;2022-07-04T06:32:45;6.25;;;5.50;;
56567;SDS011;42456;49.956;20.004;2022-07-04T06:35:14;9.40;;;5.78;;
56567;SDS011;42456;49.956;20.004;2022-07-04T06:38:01;7.83;;;5.25;;
56567;SDS011;42456;49.956;20.004;2022-07-04T06:40:27;7.42;;;5.72;;
56567;SDS011;42456;49.956;20.004;2022-07-04T06:42:53;8.05;;;5.70;;
56567;SDS011;42456;49.956;20.004;2022-07-04T06:45:19;7.60;;;5.65;;
56567;SDS011;42456;49.956;20.004;2022-07-04T06:47:46;6.87;;;6.05;;
56567;SDS011;42456;49.956;20.004;2022-07-04T06:50:12;6.90;;;5.92;;
56567;SDS011;42456;49.956;20.004;2022-07-04T06:52:39;8.28;;;6.00;;
56567;SDS011;42456;49.956;20.004;2022-07-04T06:55:06;9.58;;;6.33;;
56567;SDS011;42456;49.956;20.004;2022-07-04T06:57:33;7.45;;;5.85;;
56567;SDS011;42456;49.956;20.004;2022-07-04T07:00:00;9.85;;;6.37;;
56567;SDS011;42456;49.956;20.004;2022-07-04T07:02:28;8.15;;;6.45;;
56567;SDS011;42456;49.956;20.004;2022-07-04T07:04:55;9.53;;;6.42;;
56567;SDS011;42456;49.956;20.004;2022-07-04T07:07:22;8.73;;;6.00;;
56567;SDS011;42456;49.956;20.004;2022-07-04T07:09:50;7.65;;;5.62;;
56567;SDS011;42456;49.956;20.004;2022-07-04T07:12:17;8.88;;;6.28;;
56567;SDS011;42456;49.956;20.004;2022-07-04T07:14:43;7.70;;;6.03;;
56567;SDS011;42456;49.956;20.004;2022-07-04T07:17:09;7.80;;;6.37;;
56567;SDS011;42456;49.956;20.004;2022-07-04T07:19:36;8.40;;;6.35;;
56567;SDS011;42456;49.956;20.004;2022-07-04T07:22:02;9.68;;;6.40;;
56567;SDS011;42456;49.956;20.004;2022-07-04T07:24:29;8.00;;;6.35;;
56567;SDS011;42456;49.956;20.004;2022-07-04T07:26:58;7.65;;;5.87;;
56567;SDS011;42456;49.956;20.004;2022-07-04T07:29:24;8.83;;;6.50;;
56567;SDS011;42456;49.956;20.004;2022-07-04T07:31:50;6.72;;;5.55;;
56567;SDS011;42456;49.956;20.004;2022-07-04T07:34:17;7.45;;;5.60;;
56567;SDS011;42456;49.956;20.004;2022-07-04T07:36:43;8.88;;;6.10;;
56567;SDS011;42456;49.956;20.004;2022-07-04T07:39:09;8.40;;;5.87;;
56567;SDS011;42456;49.956;20.004;2022-07-04T07:41:36;6.12;;;5.45;;
56567;SDS011;42456;49.956;20.004;2022-07-04T07:44:02;8.85;;;5.83;;
56567;SDS011;42456;49.956;20.004;2022-07-04T07:46:28;11.05;;;6.25;;
56567;SDS011;42456;49.956;20.004;2022-07-04T07:48:55;9.28;;;5.53;;
56567;SDS011;42456;49.956;20.004;2022-07-04T07:51:21;6.70;;;5.08;;
56567;SDS011;42456;49.956;20.004;2022-07-04T07:53:48;9.93;;;5.80;;
56567;SDS011;42456;49.956;20.004;2022-07-04T07:56:14;17.27;;;9.35;;
56567;SDS011;42456;49.956;20.004;2022-07-04T07:58:40;9.83;;;6.20;;
56567;SDS011;42456;49.956;20.004;2022-07-04T08:01:06;8.10;;;5.40;;
56567;SDS011;42456;49.956;20.004;2022-07-04T08:03:33;6.97;;;4.97;;
56567;SDS011;42456;49.956;20.004;2022-07-04T08:06:13;7.58;;;5.25;;
56567;SDS011;42456;49.956;20.004;2022-07-04T08:08:40;7.28;;;5.17;;
56567;SDS011;42456;49.956;20.004;2022-07-04T08:11:08;8.75;;;5.85;;
56567;SDS011;42456;49.956;20.004;2022-07-04T08:13:35;6.33;;;5.15;;
56567;SDS011;42456;49.956;20.004;2022-07-04T08:16:02;8.00;;;5.20;;
56567;SDS011;42456;49.956;20.004;2022-07-04T08:18:29;7.30;;;5.50;;
56567;SDS011;42456;49.956;20.004;2022-07-04T08:20:55;10.25;;;5.53;;
56567;SDS011;42456;49.956;20.004;2022-07-04T08:23:21;7.85;;;6.00;;
56567;SDS011;42456;49.956;20.004;2022-07-04T08:25:48;8.50;;;5.65;;
56567;SDS011;42456;49.956;20.004;2022-07-04T08:28:14;8.68;;;5.53;;
56567;SDS011;42456;49.956;20.004;2022-07-04T08:30:40;7.30;;;5.80;;
56567;SDS011;42456;49.956;20.004;2022-07-04T08:33:06;9.75;;;5.90;;
56567;SDS011;42456;49.956;20.004;2022-07-04T08:35:33;7.40;;;5.83;;
56567;SDS011;42456;49.956;20.004;2022-07-04T08:37:59;6.65;;;5.37;;
56567;SDS011;42456;49.956;20.004;2022-07-04T08:40:26;8.40;;;5.50;;
56567;SDS011;42456;49.956;20.004;2022-07-04T08:42:55;6.62;;;5.20;;
56567;SDS011;42456;49.956;20.004;2022-07-04T08:45:26;10.40;;;5.55;;
56567;SDS011;42456;49.956;20.004;2022-07-04T08:47:59;6.22;;;5.47;;
56567;SDS011;42456;49.956;20.004;2022-07-04T08:50:33;6.35;;;4.97;;
56567;SDS011;42456;49.956;20.004;2022-07-04T08:53:11;8.45;;;5.25;;
56567;SDS011;42456;49.956;20.004;2022-07-04T08:55:40;7.08;;;5.35;;
56567;SDS011;42456;49.956;20.004;2022-07-04T08:58:21;7.08;;;5.05;;
56567;SDS011;42456;49.956;20.004;2022-07-04T09:00:52;7.75;;;4.05;;
56567;SDS011;42456;49.956;20.004;2022-07-04T09:03:19;6.03;;;4.47;;
56567;SDS011;42456;49.956;20.004;2022-07-04T09:05:46;6.35;;;4.55;;
56567;SDS011;42456;49.956;20.004;2022-07-04T09:08:13;6.22;;;4.80;;
56567;SDS011;42456;49.956;20.004;2022-07-04T09:10:39;6.92;;;5.33;;
56567;SDS011;42456;49.956;20.004;2022-07-04T09:13:06;6.28;;;4.75;;
56567;SDS011;42456;49.956;20.004;2022-07-04T09:15:34;7.37;;;3.98;;
56567;SDS011;42456;49.956;20.004;2022-07-04T09:18:01;5.17;;;4.47;;
56567;SDS011;42456;49.956;20.004;2022-07-04T09:20:29;7.20;;;4.50;;
56567;SDS011;42456;49.956;20.004;2022-07-04T09:22:57;5.80;;;5.00;;
56567;SDS011;42456;49.956;20.004;2022-07-04T09:25:24;7.50;;;4.80;;
56567;SDS011;42456;49.956;20.004;2022-07-04T09:27:52;6.85;;;4.50;;
56567;SDS011;42456;49.956;20.004;2022-07-04T09:30:22;5.65;;;4.05;;
56567;SDS011;42456;49.956;20.004;2022-07-04T09:32:51;7.67;;;4.25;;
56567;SDS011;42456;49.956;20.004;2022-07-04T09:35:22;6.10;;;4.95;;
56567;SDS011;42456;49.956;20.004;2022-07-04T09:37:53;6.10;;;5.12;;
56567;SDS011;42456;49.956;20.004;2022-07-04T09:43:17;7.20;;;4.67;;
56567;SDS011;42456;49.956;20.004;2022-07-04T09:45:53;5.75;;;4.70;;
56567;SDS011;42456;49.956;20.004;2022-07-04T09:48:25;6.37;;;4.37;;
56567;SDS011;42456;49.956;20.004;2022-07-04T09:50:51;5.85;;;4.47;;
56567;SDS011;42456;49.956;20.004;2022-07-04T09:53:17;7.37;;;4.50;;
56567;SDS011;42456;49.956;20.004;2022-07-04T09:55:44;5.83;;;4.22;;
56567;SDS011;42456;49.956;20.004;2022-07-04T09:58:15;6.47;;;4.40;;
56567;SDS011;42456;49.956;20.004;2022-07-04T10:00:42;4.97;;;3.98;;
56567;SDS011;42456;49.956;20.004;2022-07-04T10:08:37;6.35;;;4.00;;
56567;SDS011;42456;49.956;20.004;2022-07-04T10:11:05;3.83;;;3.42;;
56567;SDS011;42456;49.956;20.004;2022-07-04T10:13:33;5.70;;;3.60;;
56567;SDS011;42456;49.956;20.004;2022-07-04T10:15:59;4.25;;;3.50;;
56567;SDS011;42456;49.956;20.004;2022-07-04T10:18:26;5.22;;;3.80;;
56567;SDS011;42456;49.956;20.004;2022-07-04T10:20:53;4.47;;;3.65;;
56567;SDS011;42456;49.956;20.004;2022-07-04T10:23:21;6.90;;;3.67;;
56567;SDS011;42456;49.956;20.004;2022-07-04T10:25:51;5.80;;;3.90;;
56567;SDS011;42456;49.956;20.004;2022-07-04T10:28:21;5.50;;;3.62;;
56567;SDS011;42456;49.956;20.004;2022-07-04T10:30:54;4.05;;;3.65;;
56567;SDS011;42456;49.956;20.004;2022-07-04T10:33:23;7.35;;;3.70;;
56567;SDS011;42456;49.956;20.004;2022-07-04T10:35:59;5.05;;;3.77;;
56567;SDS011;42456;49.956;20.004;2022-07-04T10:38:34;4.87;;;3.47;;
56567;SDS011;42456;49.956;20.004;2022-07-04T10:41:17;6.78;;;3.60;;
56567;SDS011;42456;49.956;20.004;2022-07-04T10:46:34;4.45;;;3.60;;
56567;SDS011;42456;49.956;20.004;2022-07-04T10:49:07;4.85;;;3.70;;
56567;SDS011;42456;49.956;20.004;2022-07-04T10:51:49;5.12;;;3.62;;
56567;SDS011;42456;49.956;20.004;2022-07-04T10:59:42;7.12;;;3.70;;
56567;SDS011;42456;49.956;20.004;2022-07-04T11:02:30;5.50;;;3.45;;
56567;SDS011;42456;49.956;20.004;2022-07-04T11:13:01;5.72;;;3.60;;
56567;SDS011;42456;49.956;20.004;2022-07-04T11:18:03;5.60;;;3.58;;
56567;SDS011;42456;49.956;20.004;2022-07-04T11:20:44;7.12;;;3.80;;
56567;SDS011;42456;49.956;20.004;2022-07-04T11:23:15;7.53;;;4.03;;
56567;SDS011;42456;49.956;20.004;2022-07-04T11:25:45;4.58;;;3.60;;
56567;SDS011;42456;49.956;20.004;2022-07-04T11:30:59;5.78;;;3.67;;
56567;SDS011;42456;49.956;20.004;2022-07-04T11:33:27;6.55;;;3.85;;
56567;SDS011;42456;49.956;20.004;2022-07-04T11:36:06;4.85;;;3.70;;
56567;SDS011;42456;49.956;20.004;2022-07-04T11:44:13;4.40;;;3.62;;
56567;SDS011;42456;49.956;20.004;2022-07-04T11:47:17;6.42;;;3.98;;
56567;SDS011;42456;49.956;20.004;2022-07-04T11:49:31;8.78;;;4.53;;
56567;SDS011;42456;49.956;20.004;2022-07-04T11:51:58;10.75;;;5.85;;
56567;SDS011;42456;49.956;20.004;2022-07-04T11:54:25;7.75;;;3.90;;
56567;SDS011;42456;49.956;20.004;2022-07-04T11:56:51;5.35;;;3.90;;
56567;SDS011;42456;49.956;20.004;2022-07-04T11:59:18;4.62;;;3.62;;
56567;SDS011;42456;49.956;20.004;2022-07-04T12:01:44;6.08;;;3.67;;
56567;SDS011;42456;49.956;20.004;2022-07-04T12:04:14;4.78;;;3.27;;
56567;SDS011;42456;49.956;20.004;2022-07-04T12:06:46;6.33;;;3.33;;
56567;SDS011;42456;49.956;20.004;2022-07-04T12:11:53;4.15;;;3.37;;
56567;SDS011;42456;49.956;20.004;2022-07-04T12:14:23;5.42;;;3.40;;
56567;SDS011;42456;49.956;20.004;2022-07-04T12:17:37;4.47;;;3.20;;
56567;SDS011;42456;49.956;20.004;2022-07-04T12:19:36;3.40;;;3.10;;
56567;SDS011;42456;49.956;20.004;2022-07-04T12:22:03;4.33;;;3.10;;
56567;SDS011;42456;49.956;20.004;2022-07-04T12:24:39;5.15;;;3.50;;
56567;SDS011;42456;49.956;20.004;2022-07-04T12:27:15;5.20;;;3.47;;
56567;SDS011;42456;49.956;20.004;2022-07-04T12:29:46;10.68;;;3.67;;
56567;SDS011;42456;49.956;20.004;2022-07-04T12:32:14;4.62;;;3.60;;
56567;SDS011;42456;49.956;20.004;2022-07-04T12:34:41;4.10;;;3.33;;
56567;SDS011;42456;49.956;20.004;2022-07-04T12:37:09;4.55;;;3.77;;
56567;SDS011;42456;49.956;20.004;2022-07-04T12:39:38;3.67;;;3.37;;
56567;SDS011;42456;49.956;20.004;2022-07-04T12:42:24;8.30;;;3.52;;
56567;SDS011;42456;49.956;20.004;2022-07-04T12:44:45;4.78;;;3.00;;
56567;SDS011;42456;49.956;20.004;2022-07-04T12:47:14;3.87;;;2.60;;
56567;SDS011;42456;49.956;20.004;2022-07-04T12:49:43;2.72;;;2.52;;
56567;SDS011;42456;49.956;20.004;2022-07-04T12:52:13;3.12;;;2.35;;
56567;SDS011;42456;49.956;20.004;2022-07-04T12:54:42;5.33;;;3.10;;
56567;SDS011;42456;49.956;20.004;2022-07-04T12:57:13;3.65;;;3.15;;
56567;SDS011;42456;49.956;20.004;2022-07-04T12:59:43;3.37;;;2.58;;
56567;SDS011;42456;49.956;20.004;2022-07-04T13:02:10;3.08;;;2.50;;
56567;SDS011;42456;49.956;20.004;2022-07-04T13:04:37;2.50;;;2.30;;
56567;SDS011;42456;49.956;20.004;2022-07-04T13:09:44;2.85;;;2.65;;
56567;SDS011;42456;49.956;20.004;2022-07-04T13:12:12;4.05;;;3.02;;
56567;SDS011;42456;49.956;20.004;2022-07-04T13:14:53;4.30;;;2.77;;
56567;SDS011;42456;49.956;20.004;2022-07-04T13:17:21;3.65;;;2.98;;
56567;SDS011;42456;49.956;20.004;2022-07-04T13:19:48;2.95;;;2.70;;
56567;SDS011;42456;49.956;20.004;2022-07-04T13:22:14;4.40;;;2.87;;
56567;SDS011;42456;49.956;20.004;2022-07-04T13:24:41;4.08;;;3.10;;
56567;SDS011;42456;49.956;20.004;2022-07-04T13:27:07;3.75;;;3.05;;
56567;SDS011;42456;49.956;20.004;2022-07-04T13:29:33;6.00;;;3.10;;
56567;SDS011;42456;49.956;20.004;2022-07-04T13:32:00;5.50;;;3.08;;
56567;SDS011;42456;49.956;20.004;2022-07-04T13:34:26;7.65;;;3.47;;
56567;SDS011;42456;49.956;20.004;2022-07-04T13:36:52;3.47;;;3.02;;
56567;SDS011;42456;49.956;20.004;2022-07-04T13:39:20;6.60;;;3.03;;
56567;SDS011;42456;49.956;20.004;2022-07-04T13:41:46;3.02;;;2.72;;
56567;SDS011;42456;49.956;20.004;2022-07-04T13:44:12;2.92;;;2.72;;
56567;SDS011;42456;49.956;20.004;2022-07-04T13:46:41;3.47;;;2.75;;
56567;SDS011;42456;49.956;20.004;2022-07-04T13:49:08;5.90;;;3.10;;
56567;SDS011;42456;49.956;20.004;2022-07-04T13:51:34;5.12;;;2.98;;
56567;SDS011;42456;49.956;20.004;2022-07-04T13:54:02;3.92;;;2.85;;
56567;SDS011;42456;49.956;20.004;2022-07-04T13:56:28;4.65;;;3.00;;
56567;SDS011;42456;49.956;20.004;2022-07-04T13:58:55;4.70;;;3.05;;
56567;SDS011;42456;49.956;20.004;2022-07-04T14:01:23;5.37;;;3.00;;
56567;SDS011;42456;49.956;20.004;2022-07-04T14:03:50;4.03;;;3.33;;
56567;SDS011;42456;49.956;20.004;2022-07-04T14:06:16;4.87;;;3.30;;
56567;SDS011;42456;49.956;20.004;2022-07-04T14:08:44;3.85;;;3.30;;
56567;SDS011;42456;49.956;20.004;2022-07-04T14:11:11;4.47;;;3.47;;
56567;SDS011;42456;49.956;20.004;2022-07-04T14:13:37;6.28;;;3.22;;
56567;SDS011;42456;49.956;20.004;2022-07-04T14:16:05;4.23;;;3.33;;
56567;SDS011;42456;49.956;20.004;2022-07-04T14:18:32;5.00;;;3.55;;
56567;SDS011;42456;49.956;20.004;2022-07-04T14:20:59;6.65;;;4.15;;
56567;SDS011;42456;49.956;20.004;2022-07-04T14:23:25;7.05;;;3.95;;
56567;SDS011;42456;49.956;20.004;2022-07-04T14:26:05;4.05;;;3.22;;
56567;SDS011;42456;49.956;20.004;2022-07-04T14:28:33;4.40;;;3.30;;
56567;SDS011;42456;49.956;20.004;2022-07-04T14:30:59;4.37;;;3.20;;
56567;SDS011;42456;49.956;20.004;2022-07-04T14:33:26;4.65;;;3.37;;
56567;SDS011;42456;49.956;20.004;2022-07-04T14:35:52;4.72;;;2.95;;
56567;SDS011;42456;49.956;20.004;2022-07-04T14:38:19;4.97;;;2.98;;
56567;SDS011;42456;49.956;20.004;2022-07-04T14:40:45;5.17;;;3.00;;
56567;SDS011;42456;49.956;20.004;2022-07-04T14:43:13;4.20;;;3.42;;
56567;SDS011;42456;49.956;20.004;2022-07-04T14:45:42;5.95;;;3.12;;
56567;SDS011;42456;49.956;20.004;2022-07-04T14:48:09;4.72;;;3.00;;
56567;SDS011;42456;49.956;20.004;2022-07-04T14:50:35;3.25;;;2.90;;
56567;SDS011;42456;49.956;20.004;2022-07-04T14:53:01;4.20;;;3.00;;
56567;SDS011;42456;49.956;20.004;2022-07-04T14:55:28;3.35;;;3.05;;
56567;SDS011;42456;49.956;20.004;2022-07-04T14:57:55;6.00;;;3.00;;
56567;SDS011;42456;49.956;20.004;2022-07-04T15:00:21;3.45;;;2.95;;
56567;SDS011;42456;49.956;20.004;2022-07-04T15:02:48;4.90;;;3.30;;
56567;SDS011;42456;49.956;20.004;2022-07-04T15:05:15;4.90;;;2.90;;
56567;SDS011;42456;49.956;20.004;2022-07-04T15:07:42;5.28;;;3.08;;
56567;SDS011;42456;49.956;20.004;2022-07-04T15:10:08;4.22;;;3.10;;
56567;SDS011;42456;49.956;20.004;2022-07-04T15:12:35;9.80;;;3.40;;
56567;SDS011;42456;49.956;20.004;2022-07-04T15:15:01;3.83;;;2.92;;
56567;SDS011;42456;49.956;20.004;2022-07-04T15:17:28;5.45;;;3.27;;
56567;SDS011;42456;49.956;20.004;2022-07-04T15:19:54;5.22;;;3.60;;
56567;SDS011;42456;49.956;20.004;2022-07-04T15:22:34;3.92;;;3.00;;